sensor_id;sensor_type;location;lat;lon;timestamp;P1;durP1;ratioP1;P2;durP2;ratioP2
34499;SDS011;20745;50.882;6.962;2022-09-21T00:00:52;10.85;;;3.13;;
34499;SDS011;20745;50.882;6.962;2022-09-21T00:03:19;15.18;;;3.30;;
34499;SDS011;20745;50.882;6.962;2022-09-21T00:05:45;14.18;;;3.08;;
34499;SDS011;20745;50.882;6.962;2022-09-21T00:08:12;10.27;;;2.80;;
34499;SDS011;20745;50.882;6.962;2022-09-21T00:10:39;12.32;;;2.75;;
34499;SDS011;20745;50.882;6.962;2022-09-21T00:13:06;15.13;;;2.88;;
34499;SDS011;20745;50.882;6.962;2022-09-21T00:15:34;12.48;;;3.03;;
34499;SDS011;20745;50.882;6.962;2022-09-21T00:18:00;10.73;;;2.78;;
34499;SDS011;20745;50.882;6.962;2022-09-21T00:20:28;10.25;;;2.60;;
34499;SDS011;20745;50.882;6.962;2022-09-21T00:22:54;11.23;;;2.40;;
34499;SDS011;20745;50.882;6.962;2022-09-21T00:25:20;12.88;;;3.20;;
34499;SDS011;20745;50.882;6.962;2022-09-21T00:27:47;13.63;;;3.08;;
34499;SDS011;20745;50.882;6.962;2022-09-21T00:30:16;15.27;;;3.15;;
34499;SDS011;20745;50.882;6.962;2022-09-21T00:32:43;13.10;;;2.80;;
34499;SDS011;20745;50.882;6.962;2022-09-21T00:35:09;11.35;;;3.00;;
34499;SDS011;20745;50.882;6.962;2022-09-21T00:37:36;14.40;;;2.97;;
34499;SDS011;20745;50.882;6.962;2022-09-21T00:40:02;14.95;;;3.05;;
34499;SDS011;20745;50.882;6.962;2022-09-21T00:42:33;13.30;;;3.22;;
34499;SDS011;20745;50.882;6.962;2022-09-21T00:45:00;16.00;;;3.53;;
34499;SDS011;20745;50.882;6.962;2022-09-21T00:47:29;14.82;;;3.22;;
34499;SDS011;20745;50.882;6.962;2022-09-21T00:49:59;13.75;;;3.30;;
34499;SDS011;20745;50.882;6.962;2022-09-21T00:52:33;17.75;;;3.90;;
34499;SDS011;20745;50.882;6.962;2022-09-21T00:55:11;16.73;;;3.55;;
34499;SDS011;20745;50.882;6.962;2022-09-21T00:57:44;12.20;;;3.22;;
34499;SDS011;20745;50.882;6.962;2022-09-21T01:00:14;15.32;;;3.47;;
34499;SDS011;20745;50.882;6.962;2022-09-21T01:02:40;13.93;;;3.13;;
34499;SDS011;20745;50.882;6.962;2022-09-21T01:05:08;15.95;;;3.08;;
34499;SDS011;20745;50.882;6.962;2022-09-21T01:07:36;14.75;;;3.53;;
34499;SDS011;20745;50.882;6.962;2022-09-21T01:10:07;11.60;;;2.92;;
34499;SDS011;20745;50.882;6.962;2022-09-21T01:20:39;13.43;;;2.97;;
34499;SDS011;20745;50.882;6.962;2022-09-21T01:34:26;17.23;;;3.55;;
34499;SDS011;20745;50.882;6.962;2022-09-21T01:36:59;13.68;;;3.35;;
34499;SDS011;20745;50.882;6.962;2022-09-21T01:39:30;20.23;;;3.53;;
34499;SDS011;20745;50.882;6.962;2022-09-21T01:42:01;12.23;;;3.08;;
34499;SDS011;20745;50.882;6.962;2022-09-21T01:44:31;11.82;;;2.97;;
34499;SDS011;20745;50.882;6.962;2022-09-21T01:47:00;16.50;;;3.20;;
34499;SDS011;20745;50.882;6.962;2022-09-21T01:49:30;12.88;;;3.08;;
34499;SDS011;20745;50.882;6.962;2022-09-21T01:52:03;11.40;;;3.22;;
34499;SDS011;20745;50.882;6.962;2022-09-21T01:54:39;18.27;;;3.90;;
34499;SDS011;20745;50.882;6.962;2022-09-21T02:00:02;17.83;;;3.50;;
34499;SDS011;20745;50.882;6.962;2022-09-21T02:02:36;14.88;;;3.60;;
34499;SDS011;20745;50.882;6.962;2022-09-21T02:05:06;16.17;;;3.47;;
34499;SDS011;20745;50.882;6.962;2022-09-21T02:07:33;13.00;;;3.22;;
34499;SDS011;20745;50.882;6.962;2022-09-21T02:10:00;14.88;;;3.63;;
34499;SDS011;20745;50.882;6.962;2022-09-21T02:12:30;15.85;;;3.95;;
34499;SDS011;20745;50.882;6.962;2022-09-21T02:14:58;13.52;;;3.50;;
34499;SDS011;20745;50.882;6.962;2022-09-21T02:17:34;15.38;;;3.28;;
34499;SDS011;20745;50.882;6.962;2022-09-21T02:20:48;18.48;;;3.95;;
34499;SDS011;20745;50.882;6.962;2022-09-21T02:23:23;13.30;;;4.10;;
34499;SDS011;20745;50.882;6.962;2022-09-21T02:26:08;19.27;;;5.10;;
34499;SDS011;20745;50.882;6.962;2022-09-21T02:34:07;14.85;;;4.35;;
34499;SDS011;20745;50.882;6.962;2022-09-21T02:36:48;16.45;;;4.72;;
34499;SDS011;20745;50.882;6.962;2022-09-21T02:39:30;16.08;;;4.43;;
34499;SDS011;20745;50.882;6.962;2022-09-21T02:42:15;18.90;;;4.38;;
34499;SDS011;20745;50.882;6.962;2022-09-21T02:44:53;15.82;;;4.50;;
34499;SDS011;20745;50.882;6.962;2022-09-21T02:47:26;17.52;;;4.45;;
34499;SDS011;20745;50.882;6.962;2022-09-21T02:50:00;17.85;;;5.25;;
34499;SDS011;20745;50.882;6.962;2022-09-21T02:52:31;13.23;;;4.65;;
34499;SDS011;20745;50.882;6.962;2022-09-21T02:55:00;12.27;;;4.03;;
34499;SDS011;20745;50.882;6.962;2022-09-21T02:57:27;14.68;;;5.25;;
34499;SDS011;20745;50.882;6.962;2022-09-21T02:59:55;15.48;;;5.47;;
34499;SDS011;20745;50.882;6.962;2022-09-21T03:02:21;16.27;;;5.40;;
34499;SDS011;20745;50.882;6.962;2022-09-21T03:04:48;17.83;;;5.03;;
34499;SDS011;20745;50.882;6.962;2022-09-21T03:07:15;15.05;;;5.00;;
34499;SDS011;20745;50.882;6.962;2022-09-21T03:09:42;13.55;;;5.18;;
34499;SDS011;20745;50.882;6.962;2022-09-21T03:12:08;13.43;;;4.63;;
34499;SDS011;20745;50.882;6.962;2022-09-21T03:14:35;18.95;;;5.47;;
34499;SDS011;20745;50.882;6.962;2022-09-21T03:17:01;14.48;;;5.05;;
34499;SDS011;20745;50.882;6.962;2022-09-21T03:19:28;17.20;;;5.63;;
34499;SDS011;20745;50.882;6.962;2022-09-21T03:21:54;15.77;;;5.30;;
34499;SDS011;20745;50.882;6.962;2022-09-21T03:24:20;15.00;;;5.32;;
34499;SDS011;20745;50.882;6.962;2022-09-21T03:27:22;16.13;;;5.43;;
34499;SDS011;20745;50.882;6.962;2022-09-21T03:29:49;14.40;;;4.90;;
34499;SDS011;20745;50.882;6.962;2022-09-21T03:32:15;15.75;;;4.78;;
34499;SDS011;20745;50.882;6.962;2022-09-21T03:34:42;14.57;;;5.03;;
34499;SDS011;20745;50.882;6.962;2022-09-21T03:37:08;11.25;;;4.35;;
34499;SDS011;20745;50.882;6.962;2022-09-21T03:39:35;14.68;;;5.22;;
34499;SDS011;20745;50.882;6.962;2022-09-21T03:42:02;12.85;;;4.97;;
34499;SDS011;20745;50.882;6.962;2022-09-21T03:44:29;15.48;;;5.95;;
34499;SDS011;20745;50.882;6.962;2022-09-21T03:46:55;14.45;;;4.97;;
34499;SDS011;20745;50.882;6.962;2022-09-21T03:49:23;11.73;;;3.88;;
34499;SDS011;20745;50.882;6.962;2022-09-21T03:51:50;14.95;;;4.78;;
34499;SDS011;20745;50.882;6.962;2022-09-21T03:54:16;11.32;;;4.80;;
34499;SDS011;20745;50.882;6.962;2022-09-21T03:56:42;21.45;;;6.03;;
34499;SDS011;20745;50.882;6.962;2022-09-21T03:59:09;13.13;;;5.00;;
34499;SDS011;20745;50.882;6.962;2022-09-21T04:01:39;13.70;;;4.78;;
34499;SDS011;20745;50.882;6.962;2022-09-21T04:04:06;14.07;;;5.00;;
34499;SDS011;20745;50.882;6.962;2022-09-21T04:06:33;12.10;;;4.82;;
34499;SDS011;20745;50.882;6.962;2022-09-21T04:09:00;17.25;;;5.32;;
34499;SDS011;20745;50.882;6.962;2022-09-21T04:11:28;14.00;;;5.13;;
34499;SDS011;20745;50.882;6.962;2022-09-21T04:13:55;13.98;;;5.50;;
34499;SDS011;20745;50.882;6.962;2022-09-21T04:16:25;12.27;;;5.07;;
34499;SDS011;20745;50.882;6.962;2022-09-21T04:18:52;13.70;;;5.57;;
34499;SDS011;20745;50.882;6.962;2022-09-21T04:21:19;14.38;;;5.43;;
34499;SDS011;20745;50.882;6.962;2022-09-21T04:23:47;14.75;;;6.03;;
34499;SDS011;20745;50.882;6.962;2022-09-21T04:26:24;16.65;;;6.55;;
34499;SDS011;20745;50.882;6.962;2022-09-21T04:28:53;20.90;;;7.75;;
34499;SDS011;20745;50.882;6.962;2022-09-21T04:31:20;17.85;;;6.90;;
34499;SDS011;20745;50.882;6.962;2022-09-21T04:33:48;16.85;;;7.40;;
34499;SDS011;20745;50.882;6.962;2022-09-21T04:36:16;19.95;;;7.63;;
34499;SDS011;20745;50.882;6.962;2022-09-21T04:38:44;20.42;;;8.23;;
34499;SDS011;20745;50.882;6.962;2022-09-21T04:41:11;19.73;;;7.18;;
34499;SDS011;20745;50.882;6.962;2022-09-21T04:43:41;28.00;;;7.43;;
34499;SDS011;20745;50.882;6.962;2022-09-21T04:46:10;17.13;;;7.05;;
34499;SDS011;20745;50.882;6.962;2022-09-21T04:48:38;25.48;;;7.22;;
34499;SDS011;20745;50.882;6.962;2022-09-21T04:51:05;19.50;;;7.35;;
34499;SDS011;20745;50.882;6.962;2022-09-21T04:53:33;18.20;;;7.18;;
34499;SDS011;20745;50.882;6.962;2022-09-21T04:56:01;18.30;;;6.75;;
34499;SDS011;20745;50.882;6.962;2022-09-21T04:58:28;18.67;;;7.15;;
34499;SDS011;20745;50.882;6.962;2022-09-21T05:00:55;17.30;;;6.72;;
34499;SDS011;20745;50.882;6.962;2022-09-21T05:03:23;19.20;;;7.50;;
34499;SDS011;20745;50.882;6.962;2022-09-21T05:05:52;20.20;;;7.50;;
34499;SDS011;20745;50.882;6.962;2022-09-21T05:08:22;19.02;;;7.13;;
34499;SDS011;20745;50.882;6.962;2022-09-21T05:11:14;20.73;;;6.40;;
34499;SDS011;20745;50.882;6.962;2022-09-21T05:13:43;17.27;;;7.25;;
34499;SDS011;20745;50.882;6.962;2022-09-21T05:16:10;18.85;;;7.63;;
34499;SDS011;20745;50.882;6.962;2022-09-21T05:18:37;20.55;;;7.75;;
34499;SDS011;20745;50.882;6.962;2022-09-21T05:21:03;21.13;;;6.68;;
34499;SDS011;20745;50.882;6.962;2022-09-21T05:23:31;18.65;;;6.30;;
34499;SDS011;20745;50.882;6.962;2022-09-21T05:25:58;15.85;;;5.93;;
34499;SDS011;20745;50.882;6.962;2022-09-21T05:28:25;21.15;;;6.20;;
34499;SDS011;20745;50.882;6.962;2022-09-21T05:31:03;15.13;;;5.60;;
34499;SDS011;20745;50.882;6.962;2022-09-21T05:33:47;16.33;;;5.88;;
34499;SDS011;20745;50.882;6.962;2022-09-21T05:39:06;18.85;;;7.00;;
34499;SDS011;20745;50.882;6.962;2022-09-21T05:41:33;15.73;;;6.30;;
34499;SDS011;20745;50.882;6.962;2022-09-21T05:43:59;19.10;;;7.32;;
34499;SDS011;20745;50.882;6.962;2022-09-21T05:46:39;17.65;;;6.90;;
34499;SDS011;20745;50.882;6.962;2022-09-21T05:49:23;15.52;;;6.88;;
34499;SDS011;20745;50.882;6.962;2022-09-21T05:52:01;18.85;;;6.50;;
34499;SDS011;20745;50.882;6.962;2022-09-21T05:57:48;16.90;;;6.45;;
34499;SDS011;20745;50.882;6.962;2022-09-21T06:00:22;25.60;;;7.78;;
34499;SDS011;20745;50.882;6.962;2022-09-21T06:05:43;22.13;;;8.85;;
34499;SDS011;20745;50.882;6.962;2022-09-21T06:08:09;20.50;;;9.43;;
34499;SDS011;20745;50.882;6.962;2022-09-21T06:10:36;26.50;;;10.65;;
34499;SDS011;20745;50.882;6.962;2022-09-21T06:13:02;21.98;;;9.90;;
34499;SDS011;20745;50.882;6.962;2022-09-21T06:15:29;23.13;;;10.70;;
34499;SDS011;20745;50.882;6.962;2022-09-21T06:17:56;22.35;;;9.77;;
34499;SDS011;20745;50.882;6.962;2022-09-21T06:20:24;18.27;;;8.15;;
34499;SDS011;20745;50.882;6.962;2022-09-21T06:22:50;19.30;;;8.60;;
34499;SDS011;20745;50.882;6.962;2022-09-21T06:25:17;22.35;;;9.30;;
34499;SDS011;20745;50.882;6.962;2022-09-21T06:27:45;22.77;;;9.50;;
34499;SDS011;20745;50.882;6.962;2022-09-21T06:30:12;23.52;;;9.18;;
34499;SDS011;20745;50.882;6.962;2022-09-21T06:32:38;19.85;;;8.45;;
34499;SDS011;20745;50.882;6.962;2022-09-21T06:35:05;25.38;;;10.82;;
34499;SDS011;20745;50.882;6.962;2022-09-21T06:37:31;21.95;;;10.68;;
34499;SDS011;20745;50.882;6.962;2022-09-21T06:39:58;21.40;;;9.45;;
34499;SDS011;20745;50.882;6.962;2022-09-21T06:42:25;32.88;;;11.35;;
34499;SDS011;20745;50.882;6.962;2022-09-21T06:44:53;25.45;;;11.07;;
34499;SDS011;20745;50.882;6.962;2022-09-21T06:47:22;27.08;;;11.93;;
34499;SDS011;20745;50.882;6.962;2022-09-21T06:49:53;25.98;;;11.93;;
34499;SDS011;20745;50.882;6.962;2022-09-21T06:52:19;25.63;;;12.02;;
34499;SDS011;20745;50.882;6.962;2022-09-21T06:54:46;23.77;;;10.98;;
34499;SDS011;20745;50.882;6.962;2022-09-21T06:57:12;25.75;;;11.13;;
34499;SDS011;20745;50.882;6.962;2022-09-21T06:59:39;27.30;;;12.10;;
34499;SDS011;20745;50.882;6.962;2022-09-21T07:02:07;28.52;;;12.25;;
34499;SDS011;20745;50.882;6.962;2022-09-21T07:04:34;25.15;;;12.48;;
34499;SDS011;20745;50.882;6.962;2022-09-21T07:07:01;22.67;;;11.90;;
34499;SDS011;20745;50.882;6.962;2022-09-21T07:09:30;23.83;;;13.15;;
34499;SDS011;20745;50.882;6.962;2022-09-21T07:12:17;25.23;;;11.65;;
34499;SDS011;20745;50.882;6.962;2022-09-21T07:14:43;23.25;;;11.65;;
34499;SDS011;20745;50.882;6.962;2022-09-21T07:17:11;24.67;;;11.38;;
34499;SDS011;20745;50.882;6.962;2022-09-21T07:19:41;23.85;;;11.23;;
34499;SDS011;20745;50.882;6.962;2022-09-21T07:22:07;28.60;;;14.20;;
34499;SDS011;20745;50.882;6.962;2022-09-21T07:24:34;27.13;;;13.27;;
34499;SDS011;20745;50.882;6.962;2022-09-21T07:27:00;28.20;;;14.25;;
34499;SDS011;20745;50.882;6.962;2022-09-21T07:29:26;29.63;;;14.40;;
34499;SDS011;20745;50.882;6.962;2022-09-21T07:31:53;27.83;;;13.60;;
34499;SDS011;20745;50.882;6.962;2022-09-21T07:34:20;27.73;;;12.98;;
34499;SDS011;20745;50.882;6.962;2022-09-21T07:36:46;25.67;;;12.13;;
34499;SDS011;20745;50.882;6.962;2022-09-21T07:39:13;24.92;;;12.48;;
34499;SDS011;20745;50.882;6.962;2022-09-21T07:41:39;25.45;;;11.40;;
34499;SDS011;20745;50.882;6.962;2022-09-21T07:44:06;28.98;;;13.60;;
34499;SDS011;20745;50.882;6.962;2022-09-21T07:46:32;27.77;;;13.57;;
34499;SDS011;20745;50.882;6.962;2022-09-21T07:49:01;24.10;;;12.02;;
34499;SDS011;20745;50.882;6.962;2022-09-21T07:51:29;24.63;;;11.10;;
34499;SDS011;20745;50.882;6.962;2022-09-21T07:53:56;26.25;;;12.73;;
34499;SDS011;20745;50.882;6.962;2022-09-21T07:56:23;25.70;;;12.10;;
34499;SDS011;20745;50.882;6.962;2022-09-21T07:58:50;21.83;;;11.80;;
34499;SDS011;20745;50.882;6.962;2022-09-21T08:01:39;25.45;;;13.00;;
34499;SDS011;20745;50.882;6.962;2022-09-21T08:04:07;25.23;;;13.05;;
34499;SDS011;20745;50.882;6.962;2022-09-21T08:06:35;26.85;;;13.82;;
34499;SDS011;20745;50.882;6.962;2022-09-21T08:09:05;33.08;;;16.00;;
34499;SDS011;20745;50.882;6.962;2022-09-21T08:11:32;32.33;;;17.17;;
34499;SDS011;20745;50.882;6.962;2022-09-21T08:14:00;30.05;;;13.98;;
34499;SDS011;20745;50.882;6.962;2022-09-21T08:16:28;28.47;;;14.83;;
34499;SDS011;20745;50.882;6.962;2022-09-21T08:18:59;29.08;;;14.75;;
34499;SDS011;20745;50.882;6.962;2022-09-21T08:21:26;27.77;;;14.68;;
34499;SDS011;20745;50.882;6.962;2022-09-21T08:23:53;31.70;;;14.95;;
34499;SDS011;20745;50.882;6.962;2022-09-21T08:26:19;28.52;;;14.75;;
34499;SDS011;20745;50.882;6.962;2022-09-21T08:28:47;31.95;;;16.45;;
34499;SDS011;20745;50.882;6.962;2022-09-21T08:31:15;29.10;;;15.45;;
34499;SDS011;20745;50.882;6.962;2022-09-21T08:33:46;32.83;;;17.10;;
34499;SDS011;20745;50.882;6.962;2022-09-21T08:36:13;29.98;;;16.08;;
34499;SDS011;20745;50.882;6.962;2022-09-21T08:38:40;32.40;;;15.98;;
34499;SDS011;20745;50.882;6.962;2022-09-21T08:41:17;26.65;;;14.98;;
34499;SDS011;20745;50.882;6.962;2022-09-21T08:46:17;34.00;;;17.00;;
34499;SDS011;20745;50.882;6.962;2022-09-21T08:48:49;31.35;;;17.75;;
34499;SDS011;20745;50.882;6.962;2022-09-21T08:51:21;29.33;;;15.93;;
34499;SDS011;20745;50.882;6.962;2022-09-21T08:53:52;31.05;;;16.23;;
34499;SDS011;20745;50.882;6.962;2022-09-21T08:56:24;28.98;;;15.82;;
34499;SDS011;20745;50.882;6.962;2022-09-21T08:59:12;29.58;;;15.52;;
34499;SDS011;20745;50.882;6.962;2022-09-21T09:26:35;26.20;;;14.38;;
34499;SDS011;20745;50.882;6.962;2022-09-21T09:29:11;31.63;;;14.13;;
34499;SDS011;20745;50.882;6.962;2022-09-21T09:31:59;28.10;;;15.18;;
34499;SDS011;20745;50.882;6.962;2022-09-21T09:34:34;28.95;;;15.10;;
34499;SDS011;20745;50.882;6.962;2022-09-21T09:37:13;28.48;;;15.23;;
34499;SDS011;20745;50.882;6.962;2022-09-21T09:39:42;30.67;;;15.43;;
34499;SDS011;20745;50.882;6.962;2022-09-21T09:42:31;25.95;;;14.25;;
34499;SDS011;20745;50.882;6.962;2022-09-21T09:45:54;29.30;;;15.27;;
34499;SDS011;20745;50.882;6.962;2022-09-21T09:51:09;27.40;;;11.82;;
34499;SDS011;20745;50.882;6.962;2022-09-21T09:53:37;23.98;;;11.63;;
34499;SDS011;20745;50.882;6.962;2022-09-21T09:56:04;24.98;;;10.90;;
34499;SDS011;20745;50.882;6.962;2022-09-21T09:58:44;27.10;;;12.13;;
34499;SDS011;20745;50.882;6.962;2022-09-21T10:01:35;21.80;;;9.05;;
34499;SDS011;20745;50.882;6.962;2022-09-21T10:04:11;22.52;;;10.30;;
34499;SDS011;20745;50.882;6.962;2022-09-21T10:06:40;21.15;;;9.35;;
34499;SDS011;20745;50.882;6.962;2022-09-21T10:09:25;22.80;;;8.02;;
34499;SDS011;20745;50.882;6.962;2022-09-21T10:11:58;20.55;;;7.60;;
34499;SDS011;20745;50.882;6.962;2022-09-21T10:14:27;25.17;;;8.07;;
34499;SDS011;20745;50.882;6.962;2022-09-21T10:17:00;17.67;;;7.00;;
34499;SDS011;20745;50.882;6.962;2022-09-21T10:19:31;22.45;;;6.45;;
34499;SDS011;20745;50.882;6.962;2022-09-21T10:21:58;17.27;;;5.53;;
34499;SDS011;20745;50.882;6.962;2022-09-21T10:24:36;17.07;;;5.23;;
34499;SDS011;20745;50.882;6.962;2022-09-21T10:27:06;16.15;;;5.00;;
34499;SDS011;20745;50.882;6.962;2022-09-21T10:29:42;12.90;;;4.28;;
34499;SDS011;20745;50.882;6.962;2022-09-21T10:34:40;12.95;;;3.35;;
34499;SDS011;20745;50.882;6.962;2022-09-21T10:37:31;11.23;;;3.42;;
34499;SDS011;20745;50.882;6.962;2022-09-21T10:40:00;11.77;;;3.78;;
34499;SDS011;20745;50.882;6.962;2022-09-21T10:42:30;9.82;;;3.10;;
34499;SDS011;20745;50.882;6.962;2022-09-21T10:45:06;11.75;;;2.80;;
34499;SDS011;20745;50.882;6.962;2022-09-21T10:47:42;8.32;;;2.55;;
34499;SDS011;20745;50.882;6.962;2022-09-21T11:01:51;8.77;;;1.90;;
34499;SDS011;20745;50.882;6.962;2022-09-21T11:04:28;10.18;;;2.00;;
34499;SDS011;20745;50.882;6.962;2022-09-21T11:07:21;9.10;;;2.00;;
34499;SDS011;20745;50.882;6.962;2022-09-21T11:10:02;10.05;;;2.08;;
34499;SDS011;20745;50.882;6.962;2022-09-21T11:13:03;7.15;;;1.65;;
34499;SDS011;20745;50.882;6.962;2022-09-21T11:18:05;10.23;;;2.03;;
34499;SDS011;20745;50.882;6.962;2022-09-21T11:20:54;7.57;;;1.50;;
34499;SDS011;20745;50.882;6.962;2022-09-21T11:32:06;11.30;;;2.00;;
34499;SDS011;20745;50.882;6.962;2022-09-21T11:45:29;7.32;;;1.58;;
34499;SDS011;20745;50.882;6.962;2022-09-21T11:51:01;9.82;;;2.15;;
34499;SDS011;20745;50.882;6.962;2022-09-21T11:56:34;8.55;;;1.80;;
34499;SDS011;20745;50.882;6.962;2022-09-21T12:04:52;7.82;;;1.83;;
34499;SDS011;20745;50.882;6.962;2022-09-21T12:18:27;6.53;;;1.52;;
34499;SDS011;20745;50.882;6.962;2022-09-21T12:23:30;9.18;;;1.50;;
34499;SDS011;20745;50.882;6.962;2022-09-21T12:26:11;6.45;;;1.80;;
34499;SDS011;20745;50.882;6.962;2022-09-21T12:28:41;7.30;;;1.30;;
34499;SDS011;20745;50.882;6.962;2022-09-21T12:31:18;4.60;;;1.60;;
34499;SDS011;20745;50.882;6.962;2022-09-21T12:36:32;7.18;;;1.40;;
34499;SDS011;20745;50.882;6.962;2022-09-21T12:39:18;5.03;;;1.23;;
34499;SDS011;20745;50.882;6.962;2022-09-21T12:41:59;7.30;;;1.70;;
34499;SDS011;20745;50.882;6.962;2022-09-21T12:44:38;6.32;;;1.45;;
34499;SDS011;20745;50.882;6.962;2022-09-21T12:47:25;4.82;;;1.30;;
34499;SDS011;20745;50.882;6.962;2022-09-21T12:50:05;5.38;;;1.30;;
34499;SDS011;20745;50.882;6.962;2022-09-21T12:52:40;6.72;;;1.48;;
34499;SDS011;20745;50.882;6.962;2022-09-21T12:57:59;6.72;;;1.13;;
34499;SDS011;20745;50.882;6.962;2022-09-21T13:03:39;8.32;;;1.65;;
34499;SDS011;20745;50.882;6.962;2022-09-21T13:09:17;5.20;;;1.27;;
34499;SDS011;20745;50.882;6.962;2022-09-21T13:14:19;5.28;;;1.20;;
34499;SDS011;20745;50.882;6.962;2022-09-21T13:16:52;8.40;;;1.33;;
34499;SDS011;20745;50.882;6.962;2022-09-21T13:19:23;7.60;;;1.38;;
34499;SDS011;20745;50.882;6.962;2022-09-21T13:22:13;6.93;;;1.17;;
34499;SDS011;20745;50.882;6.962;2022-09-21T13:27:54;7.18;;;1.10;;
34499;SDS011;20745;50.882;6.962;2022-09-21T13:43:45;3.60;;;0.73;;
34499;SDS011;20745;50.882;6.962;2022-09-21T13:48:58;5.40;;;1.00;;
34499;SDS011;20745;50.882;6.962;2022-09-21T13:52:00;1.85;;;0.60;;
34499;SDS011;20745;50.882;6.962;2022-09-21T13:54:32;3.42;;;0.50;;
34499;SDS011;20745;50.882;6.962;2022-09-21T13:57:01;3.70;;;0.80;;
34499;SDS011;20745;50.882;6.962;2022-09-21T13:59:43;6.32;;;0.90;;
34499;SDS011;20745;50.882;6.962;2022-09-21T14:02:23;5.68;;;0.90;;
34499;SDS011;20745;50.882;6.962;2022-09-21T14:05:00;6.05;;;0.98;;
34499;SDS011;20745;50.882;6.962;2022-09-21T14:10:40;6.70;;;0.85;;
34499;SDS011;20745;50.882;6.962;2022-09-21T14:15:52;3.75;;;0.80;;
34499;SDS011;20745;50.882;6.962;2022-09-21T14:18:20;1.80;;;0.55;;
34499;SDS011;20745;50.882;6.962;2022-09-21T14:23:35;5.43;;;0.90;;
34499;SDS011;20745;50.882;6.962;2022-09-21T14:26:18;7.90;;;1.10;;
34499;SDS011;20745;50.882;6.962;2022-09-21T14:29:22;3.53;;;0.85;;
34499;SDS011;20745;50.882;6.962;2022-09-21T14:32:00;5.22;;;1.00;;
34499;SDS011;20745;50.882;6.962;2022-09-21T14:34:30;2.90;;;0.75;;
34499;SDS011;20745;50.882;6.962;2022-09-21T14:39:56;3.13;;;0.75;;
34499;SDS011;20745;50.882;6.962;2022-09-21T14:42:28;4.50;;;0.85;;
34499;SDS011;20745;50.882;6.962;2022-09-21T14:44:59;3.90;;;0.80;;
34499;SDS011;20745;50.882;6.962;2022-09-21T14:47:39;1.75;;;0.55;;
34499;SDS011;20745;50.882;6.962;2022-09-21T14:56:09;5.97;;;1.23;;
34499;SDS011;20745;50.882;6.962;2022-09-21T15:04:39;7.53;;;1.23;;
34499;SDS011;20745;50.882;6.962;2022-09-21T15:07:31;4.82;;;1.20;;
34499;SDS011;20745;50.882;6.962;2022-09-21T15:15:59;9.68;;;1.33;;
34499;SDS011;20745;50.882;6.962;2022-09-21T15:18:45;8.35;;;1.17;;
34499;SDS011;20745;50.882;6.962;2022-09-21T15:21:21;5.22;;;1.30;;
34499;SDS011;20745;50.882;6.962;2022-09-21T15:23:56;6.10;;;1.05;;
34499;SDS011;20745;50.882;6.962;2022-09-21T15:26:29;6.45;;;0.93;;
34499;SDS011;20745;50.882;6.962;2022-09-21T15:28:59;10.93;;;1.50;;
34499;SDS011;20745;50.882;6.962;2022-09-21T15:31:39;7.35;;;1.38;;
34499;SDS011;20745;50.882;6.962;2022-09-21T15:34:07;7.85;;;1.23;;
34499;SDS011;20745;50.882;6.962;2022-09-21T15:36:38;4.53;;;0.85;;
34499;SDS011;20745;50.882;6.962;2022-09-21T15:39:23;7.20;;;1.38;;
34499;SDS011;20745;50.882;6.962;2022-09-21T15:44:35;5.78;;;1.20;;
34499;SDS011;20745;50.882;6.962;2022-09-21T15:47:05;6.25;;;1.27;;
34499;SDS011;20745;50.882;6.962;2022-09-21T15:49:37;8.10;;;1.25;;
34499;SDS011;20745;50.882;6.962;2022-09-21T15:55:01;7.75;;;1.40;;
34499;SDS011;20745;50.882;6.962;2022-09-21T15:57:37;8.55;;;1.30;;
34499;SDS011;20745;50.882;6.962;2022-09-21T16:00:16;3.65;;;0.90;;
34499;SDS011;20745;50.882;6.962;2022-09-21T16:02:50;6.25;;;1.40;;
34499;SDS011;20745;50.882;6.962;2022-09-21T16:05:32;7.10;;;1.48;;
34499;SDS011;20745;50.882;6.962;2022-09-21T16:11:17;4.40;;;1.15;;
34499;SDS011;20745;50.882;6.962;2022-09-21T16:14:07;5.45;;;0.82;;
34499;SDS011;20745;50.882;6.962;2022-09-21T16:24:56;6.25;;;1.10;;
34499;SDS011;20745;50.882;6.962;2022-09-21T16:27:26;6.72;;;1.20;;
34499;SDS011;20745;50.882;6.962;2022-09-21T16:29:55;6.47;;;1.20;;
34499;SDS011;20745;50.882;6.962;2022-09-21T16:32:27;7.35;;;1.20;;
34499;SDS011;20745;50.882;6.962;2022-09-21T16:37:53;6.05;;;1.35;;
34499;SDS011;20745;50.882;6.962;2022-09-21T16:42:49;6.63;;;1.52;;
34499;SDS011;20745;50.882;6.962;2022-09-21T16:45:17;4.80;;;1.10;;
34499;SDS011;20745;50.882;6.962;2022-09-21T16:47:50;9.25;;;1.58;;
34499;SDS011;20745;50.882;6.962;2022-09-21T16:50:18;6.70;;;1.42;;
34499;SDS011;20745;50.882;6.962;2022-09-21T16:52:45;7.47;;;1.60;;
34499;SDS011;20745;50.882;6.962;2022-09-21T16:55:20;9.45;;;1.42;;
34499;SDS011;20745;50.882;6.962;2022-09-21T16:57:52;8.05;;;1.30;;
34499;SDS011;20745;50.882;6.962;2022-09-21T17:00:19;7.25;;;1.42;;
34499;SDS011;20745;50.882;6.962;2022-09-21T17:02:46;9.50;;;1.30;;
34499;SDS011;20745;50.882;6.962;2022-09-21T17:05:13;8.75;;;1.65;;
34499;SDS011;20745;50.882;6.962;2022-09-21T17:07:50;6.22;;;1.45;;
34499;SDS011;20745;50.882;6.962;2022-09-21T17:10:19;13.32;;;2.28;;
34499;SDS011;20745;50.882;6.962;2022-09-21T17:12:49;9.48;;;2.03;;
34499;SDS011;20745;50.882;6.962;2022-09-21T17:15:18;11.35;;;2.20;;
34499;SDS011;20745;50.882;6.962;2022-09-21T17:17:46;6.85;;;1.95;;
34499;SDS011;20745;50.882;6.962;2022-09-21T17:23:05;8.65;;;1.73;;
34499;SDS011;20745;50.882;6.962;2022-09-21T17:25:31;10.35;;;1.83;;
34499;SDS011;20745;50.882;6.962;2022-09-21T17:28:00;8.48;;;1.80;;
34499;SDS011;20745;50.882;6.962;2022-09-21T17:30:27;10.35;;;1.85;;
34499;SDS011;20745;50.882;6.962;2022-09-21T17:32:54;8.35;;;1.70;;
34499;SDS011;20745;50.882;6.962;2022-09-21T17:35:35;8.48;;;1.52;;
34499;SDS011;20745;50.882;6.962;2022-09-21T17:38:04;9.57;;;1.77;;
34499;SDS011;20745;50.882;6.962;2022-09-21T17:40:39;8.70;;;1.70;;
34499;SDS011;20745;50.882;6.962;2022-09-21T17:45:49;13.45;;;3.17;;
34499;SDS011;20745;50.882;6.962;2022-09-21T17:48:38;8.53;;;2.30;;
34499;SDS011;20745;50.882;6.962;2022-09-21T17:51:06;11.93;;;2.40;;
34499;SDS011;20745;50.882;6.962;2022-09-21T17:53:33;13.77;;;2.47;;
34499;SDS011;20745;50.882;6.962;2022-09-21T17:56:22;13.18;;;3.28;;
34499;SDS011;20745;50.882;6.962;2022-09-21T17:59:03;8.80;;;2.13;;
34499;SDS011;20745;50.882;6.962;2022-09-21T18:01:31;9.10;;;2.10;;
34499;SDS011;20745;50.882;6.962;2022-09-21T18:04:01;7.80;;;2.05;;
34499;SDS011;20745;50.882;6.962;2022-09-21T18:06:29;9.13;;;2.17;;
34499;SDS011;20745;50.882;6.962;2022-09-21T18:08:56;9.73;;;2.25;;
34499;SDS011;20745;50.882;6.962;2022-09-21T18:17:12;14.82;;;2.22;;
34499;SDS011;20745;50.882;6.962;2022-09-21T18:23:13;11.57;;;2.55;;
34499;SDS011;20745;50.882;6.962;2022-09-21T18:25:49;13.18;;;2.67;;
34499;SDS011;20745;50.882;6.962;2022-09-21T18:28:41;12.32;;;2.60;;
34499;SDS011;20745;50.882;6.962;2022-09-21T18:36:31;11.98;;;2.42;;
34499;SDS011;20745;50.882;6.962;2022-09-21T18:47:12;9.05;;;2.40;;
34499;SDS011;20745;50.882;6.962;2022-09-21T18:49:53;10.85;;;2.55;;
34499;SDS011;20745;50.882;6.962;2022-09-21T18:52:29;9.65;;;2.47;;
34499;SDS011;20745;50.882;6.962;2022-09-21T18:55:19;13.45;;;3.10;;
34499;SDS011;20745;50.882;6.962;2022-09-21T18:57:55;12.88;;;3.10;;
34499;SDS011;20745;50.882;6.962;2022-09-21T19:00:23;12.32;;;2.88;;
34499;SDS011;20745;50.882;6.962;2022-09-21T19:02:57;9.35;;;2.50;;
34499;SDS011;20745;50.882;6.962;2022-09-21T19:17:05;13.82;;;3.88;;